Time;durP1;ratioP1;P1;durP2;ratioP2;P2;SDS_P1;SDS_P2;PMS_P1;PMS_P2;Temp;Humidity;BMP_temperature;BMP_pressure;BME280_temperature;BME280_humidity;BME280_pressure;Samples;Min_cycle;Max_cycle;Signal;HPM_P1;HPM_P2
2021/08/03 00:00:05;;;;;;;8.60;6.13;;;;;;;;;;5097882;28;20567;-59
2021/08/03 00:02:58;;;;;;;7.65;5.47;;;;;;;;;;5096795;28;20048;-59
2021/08/03 00:05:27;;;;;;;8.80;5.50;;;;;;;;;;5077784;28;20130;-59
2021/08/03 00:08:03;;;;;;;8.95;6.15;;;;;;;;;;5095537;28;20222;-59
2021/08/03 00:10:30;;;;;;;9.68;5.65;;;;;;;;;;5095832;28;20040;-59
2021/08/03 00:12:57;;;;;;;9.40;6.07;;;;;;;;;;5093668;28;20513;-59
2021/08/03 00:15:23;;;;;;;10.30;5.72;;;;;;;;;;5093438;28;20040;-60
2021/08/03 00:17:57;;;;;;;9.75;6.00;;;;;;;;;;5095326;28;20044;-60
2021/08/03 00:20:25;;;;;;;10.00;5.97;;;;;;;;;;5095545;28;20044;-60
2021/08/03 00:22:52;;;;;;;10.98;5.22;;;;;;;;;;5077662;28;20051;-60
2021/08/03 00:25:19;;;;;;;8.23;5.35;;;;;;;;;;5094083;28;20039;-59
2021/08/03 00:27:45;;;;;;;9.15;5.38;;;;;;;;;;5090179;28;20087;-59
2021/08/03 00:30:12;;;;;;;10.65;6.20;;;;;;;;;;5096194;28;20263;-60
2021/08/03 00:32:38;;;;;;;11.50;5.75;;;;;;;;;;5094131;28;20048;-59
2021/08/03 00:35:05;;;;;;;7.90;5.20;;;;;;;;;;5095438;28;20082;-60
2021/08/03 00:37:31;;;;;;;7.75;5.30;;;;;;;;;;5095442;28;20113;-59
2021/08/03 00:39:57;;;;;;;8.98;5.65;;;;;;;;;;5093276;28;20549;-59
2021/08/03 00:42:25;;;;;;;9.02;5.15;;;;;;;;;;5092637;28;20048;-59
2021/08/03 00:44:52;;;;;;;8.80;5.13;;;;;;;;;;5097294;28;20178;-60
2021/08/03 00:47:26;;;;;;;9.63;4.97;;;;;;;;;;5077087;28;20132;-59
2021/08/03 00:50:00;;;;;;;7.47;5.47;;;;;;;;;;5095231;28;20097;-60
2021/08/03 00:52:28;;;;;;;8.18;5.28;;;;;;;;;;5077056;28;20304;-59
2021/08/03 00:54:55;;;;;;;8.23;5.13;;;;;;;;;;5092758;28;20040;-60
2021/08/03 00:57:22;;;;;;;9.68;4.88;;;;;;;;;;5075302;28;20055;-60
2021/08/03 00:59:48;;;;;;;8.13;5.57;;;;;;;;;;5096884;28;20044;-59
2021/08/03 01:02:18;;;;;;;8.57;4.93;;;;;;;;;;5095006;28;20059;-60
2021/08/03 01:04:45;;;;;;;8.88;5.75;;;;;;;;;;5075875;28;20065;-59
2021/08/03 01:07:20;;;;;;;10.20;5.18;;;;;;;;;;5075484;28;20051;-60
2021/08/03 01:09:57;;;;;;;7.07;4.32;;;;;;;;;;5057448;28;20051;-60
2021/08/03 01:12:35;;;;;;;11.40;5.40;;;;;;;;;;5092923;28;20075;-59
2021/08/03 01:15:09;;;;;;;7.47;5.00;;;;;;;;;;5112526;28;20483;-59
2021/08/03 01:17:52;;;;;;;7.90;5.00;;;;;;;;;;5077112;28;20044;-60
2021/08/03 01:20:18;;;;;;;7.43;4.65;;;;;;;;;;5076919;28;20452;-60
2021/08/03 01:23:05;;;;;;;7.78;4.97;;;;;;;;;;5077061;28;20040;-60
2021/08/03 01:25:50;;;;;;;6.95;4.88;;;;;;;;;;5076986;28;20067;-59
2021/08/03 01:28:18;;;;;;;7.85;4.47;;;;;;;;;;5076840;28;20067;-59
2021/08/03 01:30:58;;;;;;;10.82;4.75;;;;;;;;;;5056465;28;20046;-59
2021/08/03 01:33:28;;;;;;;6.75;4.93;;;;;;;;;;5074319;28;20064;-59
2021/08/03 01:35:58;;;;;;;7.13;4.60;;;;;;;;;;5078809;28;20055;-59
2021/08/03 01:38:26;;;;;;;7.90;4.07;;;;;;;;;;5060162;28;20123;-59
2021/08/03 01:40:54;;;;;;;8.73;4.85;;;;;;;;;;5094707;28;20091;-60
2021/08/03 01:43:21;;;;;;;5.40;3.78;;;;;;;;;;5075458;28;20117;-59
2021/08/03 01:45:48;;;;;;;6.00;4.15;;;;;;;;;;5092571;28;20518;-59
2021/08/03 01:48:15;;;;;;;9.43;4.55;;;;;;;;;;5098486;28;20116;-59
2021/08/03 01:50:44;;;;;;;9.10;5.05;;;;;;;;;;5082151;28;20051;-60
2021/08/03 01:53:10;;;;;;;7.35;4.30;;;;;;;;;;5080047;28;20109;-59
2021/08/03 01:55:38;;;;;;;12.30;5.18;;;;;;;;;;5080251;28;20071;-59
2021/08/03 01:58:13;;;;;;;10.00;4.30;;;;;;;;;;5080232;28;20053;-59
2021/08/03 02:00:51;;;;;;;7.40;3.75;;;;;;;;;;5080220;28;20071;-59
2021/08/03 02:03:19;;;;;;;8.88;4.35;;;;;;;;;;5079227;28;20044;-60
2021/08/03 02:05:47;;;;;;;7.80;4.28;;;;;;;;;;5081600;28;20040;-59
2021/08/03 02:08:23;;;;;;;9.70;4.25;;;;;;;;;;5079845;28;20097;-60
2021/08/03 02:11:03;;;;;;;8.00;4.30;;;;;;;;;;5079894;28;20047;-60
2021/08/03 02:13:30;;;;;;;6.65;4.07;;;;;;;;;;5079705;28;20406;-59
2021/08/03 02:15:57;;;;;;;8.68;3.97;;;;;;;;;;5077734;28;20040;-59
2021/08/03 02:18:25;;;;;;;7.72;4.15;;;;;;;;;;5077085;28;20100;-60
2021/08/03 02:20:56;;;;;;;9.57;3.90;;;;;;;;;;5099847;28;20495;-59
2021/08/03 02:23:28;;;;;;;11.02;3.78;;;;;;;;;;5078418;28;20100;-59
2021/08/03 02:26:01;;;;;;;8.10;3.90;;;;;;;;;;5078045;28;20403;-59
2021/08/03 02:28:28;;;;;;;10.68;4.20;;;;;;;;;;5079310;28;20043;-59
2021/08/03 02:30:59;;;;;;;7.38;4.20;;;;;;;;;;5077401;28;20093;-60
2021/08/03 02:33:29;;;;;;;6.93;3.67;;;;;;;;;;5076738;28;20112;-60
2021/08/03 02:36:05;;;;;;;9.05;3.80;;;;;;;;;;5081447;28;20121;-59
2021/08/03 02:38:34;;;;;;;9.55;4.28;;;;;;;;;;5079446;28;20079;-59
2021/08/03 02:41:00;;;;;;;6.90;4.25;;;;;;;;;;5079193;28;20050;-59
2021/08/03 02:43:36;;;;;;;14.77;4.40;;;;;;;;;;5079268;28;20491;-59
2021/08/03 02:46:04;;;;;;;8.75;3.85;;;;;;;;;;5078056;28;20050;-59
2021/08/03 02:48:33;;;;;;;9.20;4.45;;;;;;;;;;5075671;28;20067;-59
2021/08/03 02:51:00;;;;;;;8.00;4.20;;;;;;;;;;5099239;28;20052;-59
2021/08/03 02:53:36;;;;;;;6.35;3.78;;;;;;;;;;5097028;28;20522;-59
2021/08/03 02:56:06;;;;;;;9.88;4.28;;;;;;;;;;5096051;28;20047;-59
2021/08/03 02:58:39;;;;;;;9.20;4.60;;;;;;;;;;5078892;28;20036;-59
2021/08/03 03:01:08;;;;;;;6.28;3.83;;;;;;;;;;5073266;28;20048;-59
2021/08/03 03:03:36;;;;;;;7.43;4.05;;;;;;;;;;5083831;28;20059;-59
2021/08/03 03:06:04;;;;;;;7.53;4.00;;;;;;;;;;5098852;28;20048;-60
2021/08/03 03:08:33;;;;;;;6.28;3.90;;;;;;;;;;5096663;28;20638;-60
2021/08/03 03:11:02;;;;;;;5.43;3.88;;;;;;;;;;5077396;28;20040;-59
2021/08/03 03:13:36;;;;;;;10.68;4.45;;;;;;;;;;5096591;28;20042;-59
2021/08/03 03:16:03;;;;;;;8.60;3.72;;;;;;;;;;5076669;28;20067;-59
2021/08/03 03:18:30;;;;;;;11.70;4.90;;;;;;;;;;5074796;28;20110;-59
2021/08/03 03:20:57;;;;;;;7.50;4.55;;;;;;;;;;5114161;27;20497;-60
2021/08/03 03:23:24;;;;;;;8.95;4.65;;;;;;;;;;5077906;28;20074;-59
2021/08/03 03:25:53;;;;;;;8.57;4.90;;;;;;;;;;5077779;28;20052;-59
2021/08/03 03:28:24;;;;;;;4.93;3.33;;;;;;;;;;5095842;28;20054;-60
2021/08/03 03:30:52;;;;;;;10.70;4.50;;;;;;;;;;5075052;28;20052;-60
2021/08/03 03:33:19;;;;;;;13.88;4.82;;;;;;;;;;5077091;28;20399;-60
2021/08/03 03:35:46;;;;;;;9.98;4.88;;;;;;;;;;5097151;28;20040;-59
2021/08/03 03:38:13;;;;;;;8.82;4.75;;;;;;;;;;5078274;28;20072;-59
2021/08/03 03:40:39;;;;;;;11.13;4.03;;;;;;;;;;5076640;28;20090;-59
2021/08/03 03:43:07;;;;;;;7.03;3.90;;;;;;;;;;5075792;28;20086;-60
2021/08/03 03:45:35;;;;;;;8.93;4.65;;;;;;;;;;5092462;28;22664;-59
2021/08/03 03:48:07;;;;;;;10.32;4.07;;;;;;;;;;5079850;28;20509;-59
2021/08/03 03:50:37;;;;;;;7.40;5.20;;;;;;;;;;5076638;28;20090;-59
2021/08/03 03:53:09;;;;;;;9.38;4.30;;;;;;;;;;5077612;28;20054;-59
2021/08/03 03:55:37;;;;;;;6.78;4.43;;;;;;;;;;5077752;28;20224;-60
2021/08/03 03:58:04;;;;;;;5.72;4.32;;;;;;;;;;5076579;28;20380;-59
2021/08/03 04:00:34;;;;;;;8.38;3.75;;;;;;;;;;5074370;28;20059;-59
2021/08/03 04:03:02;;;;;;;6.28;3.78;;;;;;;;;;5079849;28;20071;-59
2021/08/03 04:05:29;;;;;;;7.50;3.90;;;;;;;;;;5095803;28;20048;-60
2021/08/03 04:07:56;;;;;;;8.13;3.88;;;;;;;;;;5077296;28;20127;-60
2021/08/03 04:10:31;;;;;;;7.97;3.97;;;;;;;;;;5077526;28;20083;-59
2021/08/03 04:12:58;;;;;;;6.72;4.00;;;;;;;;;;5072936;28;20056;-60
2021/08/03 04:15:25;;;;;;;6.28;3.83;;;;;;;;;;5089099;28;20064;-59
2021/08/03 04:17:51;;;;;;;14.70;5.75;;;;;;;;;;5106538;28;20479;-59
2021/08/03 04:20:18;;;;;;;6.03;3.85;;;;;;;;;;5078509;28;20048;-59
2021/08/03 04:22:44;;;;;;;7.03;3.60;;;;;;;;;;5094168;28;20083;-59
2021/08/03 04:25:11;;;;;;;8.05;3.70;;;;;;;;;;5076982;28;20130;-59
2021/08/03 04:27:37;;;;;;;8.10;4.03;;;;;;;;;;5091229;28;20040;-60
2021/08/03 04:30:04;;;;;;;6.50;4.13;;;;;;;;;;5097504;28;20098;-59
2021/08/03 04:32:30;;;;;;;6.35;4.05;;;;;;;;;;5095403;28;20108;-59
2021/08/03 04:34:57;;;;;;;9.15;3.72;;;;;;;;;;5095354;28;20051;-59
2021/08/03 04:37:23;;;;;;;5.78;3.80;;;;;;;;;;5095386;28;20078;-59
2021/08/03 04:39:49;;;;;;;6.65;3.42;;;;;;;;;;5091832;28;20040;-59
2021/08/03 04:42:16;;;;;;;5.72;3.83;;;;;;;;;;5095501;28;20186;-60
2021/08/03 04:44:42;;;;;;;7.00;3.80;;;;;;;;;;5077954;28;20056;-59
2021/08/03 04:47:08;;;;;;;8.95;4.25;;;;;;;;;;5091884;28;20052;-60
2021/08/03 04:49:35;;;;;;;6.65;3.83;;;;;;;;;;5071051;28;20403;-60
2021/08/03 04:52:04;;;;;;;11.65;3.75;;;;;;;;;;5092280;28;20445;-60
2021/08/03 04:54:31;;;;;;;6.90;4.15;;;;;;;;;;5091942;28;20052;-59
2021/08/03 04:56:57;;;;;;;6.80;3.08;;;;;;;;;;5097129;28;20051;-60
2021/08/03 04:59:23;;;;;;;5.30;2.90;;;;;;;;;;5093852;28;20076;-59
2021/08/03 05:01:50;;;;;;;6.65;2.90;;;;;;;;;;5093647;28;20048;-59
2021/08/03 05:04:16;;;;;;;6.57;3.67;;;;;;;;;;5077104;28;20078;-60
2021/08/03 05:06:42;;;;;;;5.22;3.60;;;;;;;;;;5071575;28;20080;-60
2021/08/03 05:09:09;;;;;;;9.75;3.72;;;;;;;;;;5096526;28;20123;-59
2021/08/03 05:11:35;;;;;;;5.07;3.38;;;;;;;;;;5093532;28;20097;-59
2021/08/03 05:14:02;;;;;;;9.02;4.38;;;;;;;;;;5086077;28;20060;-60
2021/08/03 05:16:29;;;;;;;8.13;3.95;;;;;;;;;;5086173;28;20415;-59
2021/08/03 05:18:56;;;;;;;8.43;4.70;;;;;;;;;;5088735;28;20036;-60
2021/08/03 05:21:22;;;;;;;7.00;4.22;;;;;;;;;;5111875;28;20096;-60
2021/08/03 05:23:49;;;;;;;7.13;4.20;;;;;;;;;;5100122;28;20491;-60
2021/08/03 05:26:16;;;;;;;9.60;4.45;;;;;;;;;;5098859;28;20043;-60
2021/08/03 05:28:42;;;;;;;8.20;3.80;;;;;;;;;;5098804;28;20530;-60
2021/08/03 05:31:08;;;;;;;6.15;3.72;;;;;;;;;;5098003;28;20388;-60
2021/08/03 05:33:35;;;;;;;7.38;3.40;;;;;;;;;;5094339;28;20052;-60
2021/08/03 05:36:01;;;;;;;5.47;2.90;;;;;;;;;;5072664;28;20068;-60
2021/08/03 05:38:28;;;;;;;5.45;3.25;;;;;;;;;;5112530;27;20052;-60
2021/08/03 05:40:54;;;;;;;5.18;2.70;;;;;;;;;;5090865;28;20044;-60
2021/08/03 05:43:20;;;;;;;4.53;2.58;;;;;;;;;;5088803;28;20061;-59
2021/08/03 05:45:47;;;;;;;5.03;2.67;;;;;;;;;;5086413;28;20040;-59
2021/08/03 05:48:14;;;;;;;5.53;2.78;;;;;;;;;;5090313;28;20066;-60
2021/08/03 05:50:40;;;;;;;3.42;2.17;;;;;;;;;;5088705;28;20067;-60
2021/08/03 05:53:07;;;;;;;4.25;2.88;;;;;;;;;;5087771;28;20048;-60
2021/08/03 05:55:33;;;;;;;6.57;2.03;;;;;;;;;;5084889;28;20056;-60
2021/08/03 05:57:59;;;;;;;4.70;2.50;;;;;;;;;;5089220;28;20123;-60
2021/08/03 06:00:26;;;;;;;6.72;2.22;;;;;;;;;;5085831;28;20052;-60
2021/08/03 06:02:52;;;;;;;4.32;2.40;;;;;;;;;;5081170;28;21154;-60
2021/08/03 06:05:18;;;;;;;4.18;2.15;;;;;;;;;;5085601;28;20063;-60
2021/08/03 06:07:50;;;;;;;6.45;1.60;;;;;;;;;;5090751;28;20090;-60
2021/08/03 06:10:16;;;;;;;9.95;2.05;;;;;;;;;;5087604;28;20068;-60
2021/08/03 06:12:45;;;;;;;3.08;1.77;;;;;;;;;;5091798;28;20549;-60
2021/08/03 06:15:13;;;;;;;4.57;1.73;;;;;;;;;;5089618;28;20051;-60
2021/08/03 06:17:42;;;;;;;3.63;2.05;;;;;;;;;;5077419;28;20435;-60
2021/08/03 06:20:09;;;;;;;8.23;2.15;;;;;;;;;;5085710;28;20101;-60
2021/08/03 06:22:36;;;;;;;8.00;1.80;;;;;;;;;;5087203;28;20127;-60
2021/08/03 06:25:03;;;;;;;5.75;1.63;;;;;;;;;;5082310;28;20071;-60
2021/08/03 06:27:30;;;;;;;2.83;1.52;;;;;;;;;;5072019;28;20045;-60
2021/08/03 06:29:59;;;;;;;3.67;1.70;;;;;;;;;;5075415;28;20048;-60
2021/08/03 06:32:27;;;;;;;2.00;1.23;;;;;;;;;;5082969;28;20035;-60
2021/08/03 06:34:53;;;;;;;3.53;1.50;;;;;;;;;;5079583;28;20048;-60
2021/08/03 06:37:19;;;;;;;4.50;1.70;;;;;;;;;;5078774;28;20048;-60
2021/08/03 06:39:46;;;;;;;3.58;1.65;;;;;;;;;;5086061;28;20037;-60
2021/08/03 06:42:25;;;;;;;4.05;1.60;;;;;;;;;;5090282;28;20060;-60
2021/08/03 06:44:55;;;;;;;3.63;1.60;;;;;;;;;;5087538;28;20040;-60
2021/08/03 06:47:26;;;;;;;3.53;1.77;;;;;;;;;;5082445;28;20048;-61
2021/08/03 06:49:54;;;;;;;4.70;1.90;;;;;;;;;;5089427;28;20073;-61
2021/08/03 06:52:20;;;;;;;2.58;1.67;;;;;;;;;;5092833;28;20048;-60
2021/08/03 06:54:57;;;;;;;3.80;1.60;;;;;;;;;;5104510;28;20083;-60
2021/08/03 06:57:24;;;;;;;4.65;1.70;;;;;;;;;;5075972;28;20055;-61
2021/08/03 06:59:54;;;;;;;4.43;2.10;;;;;;;;;;5077782;28;20101;-60
2021/08/03 07:02:30;;;;;;;3.08;1.63;;;;;;;;;;5092074;28;20166;-61
2021/08/03 07:04:56;;;;;;;3.08;1.33;;;;;;;;;;5102673;28;20075;-60
2021/08/03 07:07:23;;;;;;;3.40;1.27;;;;;;;;;;5102283;28;20048;-60
2021/08/03 07:09:50;;;;;;;2.85;1.40;;;;;;;;;;5101801;28;20064;-61
2021/08/03 07:12:16;;;;;;;1.75;1.17;;;;;;;;;;5107066;28;20105;-61
2021/08/03 07:14:43;;;;;;;2.30;1.38;;;;;;;;;;5107416;28;20067;-60
2021/08/03 07:17:13;;;;;;;2.08;1.30;;;;;;;;;;5102645;28;20135;-61
2021/08/03 07:19:40;;;;;;;2.85;1.50;;;;;;;;;;5106334;28;20528;-61
2021/08/03 07:22:10;;;;;;;7.28;1.85;;;;;;;;;;5102179;28;20557;-61
2021/08/03 07:24:37;;;;;;;3.83;1.48;;;;;;;;;;5105440;28;20044;-61
2021/08/03 07:27:04;;;;;;;3.63;1.40;;;;;;;;;;5107570;28;20067;-61
2021/08/03 07:29:30;;;;;;;2.42;1.30;;;;;;;;;;5080878;28;20704;-61
2021/08/03 07:31:56;;;;;;;2.95;1.55;;;;;;;;;;5094465;28;20070;-61
2021/08/03 07:34:23;;;;;;;7.13;1.60;;;;;;;;;;5093515;28;20101;-61
2021/08/03 07:36:49;;;;;;;2.95;1.42;;;;;;;;;;5093135;28;20044;-61
2021/08/03 07:39:15;;;;;;;6.93;1.20;;;;;;;;;;5076183;28;20048;-60
2021/08/03 07:41:42;;;;;;;4.00;1.40;;;;;;;;;;5079257;28;20083;-60
2021/08/03 07:44:08;;;;;;;4.60;1.45;;;;;;;;;;5079743;28;20127;-61
2021/08/03 07:46:35;;;;;;;2.33;1.00;;;;;;;;;;5105487;28;20093;-61
2021/08/03 07:49:03;;;;;;;2.72;1.20;;;;;;;;;;5104533;28;20063;-61
2021/08/03 07:51:29;;;;;;;2.95;1.27;;;;;;;;;;5104049;28;20043;-61
2021/08/03 07:53:55;;;;;;;4.07;1.38;;;;;;;;;;5089919;28;20059;-61
2021/08/03 07:56:22;;;;;;;5.53;1.45;;;;;;;;;;5102556;28;20047;-61
2021/08/03 07:58:48;;;;;;;5.50;1.30;;;;;;;;;;5103359;28;20047;-61
2021/08/03 08:01:17;;;;;;;3.70;1.25;;;;;;;;;;5093241;28;20079;-61
2021/08/03 08:03:45;;;;;;;2.75;1.13;;;;;;;;;;5099217;28;20044;-61
2021/08/03 08:06:11;;;;;;;2.55;1.10;;;;;;;;;;5085731;28;20074;-61
2021/08/03 08:08:37;;;;;;;3.13;1.20;;;;;;;;;;5096547;28;20491;-61
2021/08/03 08:11:04;;;;;;;2.65;1.20;;;;;;;;;;5096275;28;20039;-61
2021/08/03 08:13:30;;;;;;;4.40;1.30;;;;;;;;;;5097091;28;20040;-61
2021/08/03 08:15:56;;;;;;;4.25;1.38;;;;;;;;;;5096724;28;20078;-60
2021/08/03 08:18:23;;;;;;;1.85;1.20;;;;;;;;;;5099303;28;20071;-61
2021/08/03 08:20:49;;;;;;;3.35;1.40;;;;;;;;;;5101501;28;20053;-60
2021/08/03 08:23:16;;;;;;;3.08;1.40;;;;;;;;;;5096387;28;20479;-61
2021/08/03 08:25:42;;;;;;;3.65;1.58;;;;;;;;;;5102256;28;20075;-61
2021/08/03 08:28:09;;;;;;;3.42;1.23;;;;;;;;;;5098945;28;20036;-61
2021/08/03 08:30:36;;;;;;;3.53;1.30;;;;;;;;;;5105361;28;20043;-61
2021/08/03 08:33:02;;;;;;;2.13;1.17;;;;;;;;;;5106776;28;20082;-61
2021/08/03 08:35:29;;;;;;;1.98;1.00;;;;;;;;;;5101026;28;20047;-61
2021/08/03 08:37:55;;;;;;;5.00;1.42;;;;;;;;;;5101220;28;20455;-61
2021/08/03 08:40:21;;;;;;;3.53;1.17;;;;;;;;;;5103108;28;20070;-61
2021/08/03 08:42:48;;;;;;;4.45;1.10;;;;;;;;;;5100493;28;20040;-61
2021/08/03 08:45:15;;;;;;;2.10;1.20;;;;;;;;;;5100410;28;20044;-61
2021/08/03 08:47:48;;;;;;;3.45;2.03;;;;;;;;;;5099605;28;20072;-61
2021/08/03 08:50:16;;;;;;;2.15;1.30;;;;;;;;;;5094258;28;20127;-61
2021/08/03 08:52:45;;;;;;;3.42;1.40;;;;;;;;;;5094919;28;20060;-61
2021/08/03 08:55:12;;;;;;;3.45;1.20;;;;;;;;;;5104064;28;20058;-61
2021/08/03 08:57:39;;;;;;;4.07;1.40;;;;;;;;;;5094040;28;20090;-61
2021/08/03 09:00:07;;;;;;;4.07;1.27;;;;;;;;;;5100239;28;20125;-61
2021/08/03 09:02:43;;;;;;;5.03;1.30;;;;;;;;;;5104628;28;20528;-61
2021/08/03 09:05:11;;;;;;;3.03;1.40;;;;;;;;;;5101615;28;20575;-61
2021/08/03 09:07:48;;;;;;;2.67;1.55;;;;;;;;;;5098532;28;20047;-61
2021/08/03 09:10:31;;;;;;;2.80;1.33;;;;;;;;;;5098543;28;20069;-61
2021/08/03 09:12:58;;;;;;;3.63;1.50;;;;;;;;;;5100241;28;20050;-61
2021/08/03 09:15:24;;;;;;;3.03;1.60;;;;;;;;;;5101602;28;20086;-61
2021/08/03 09:17:51;;;;;;;2.42;1.30;;;;;;;;;;5106439;28;20127;-61
2021/08/03 09:20:17;;;;;;;3.65;1.63;;;;;;;;;;5107782;28;20063;-61
2021/08/03 09:22:50;;;;;;;5.18;1.45;;;;;;;;;;5100393;28;20082;-61
2021/08/03 09:25:17;;;;;;;3.17;1.40;;;;;;;;;;5103033;28;20071;-61
2021/08/03 09:27:45;;;;;;;2.45;1.35;;;;;;;;;;5101754;28;20044;-61
2021/08/03 09:30:17;;;;;;;4.63;1.30;;;;;;;;;;5106150;28;20403;-61
2021/08/03 09:32:44;;;;;;;4.15;1.50;;;;;;;;;;5099569;28;20153;-61
2021/08/03 09:35:12;;;;;;;3.97;1.50;;;;;;;;;;5108273;28;20075;-61
2021/08/03 09:37:40;;;;;;;2.40;1.42;;;;;;;;;;5106198;28;20063;-61
2021/08/03 09:40:07;;;;;;;6.93;1.63;;;;;;;;;;5104489;28;20043;-61
2021/08/03 09:42:34;;;;;;;6.10;1.35;;;;;;;;;;5104868;28;20070;-61
2021/08/03 09:45:02;;;;;;;3.55;1.30;;;;;;;;;;5109208;28;20073;-62
2021/08/03 09:47:29;;;;;;;8.45;1.45;;;;;;;;;;5106291;28;20407;-61
2021/08/03 09:49:57;;;;;;;3.90;1.13;;;;;;;;;;5107331;28;20061;-61
2021/08/03 09:52:24;;;;;;;3.17;1.55;;;;;;;;;;5108090;28;20086;-61
2021/08/03 09:54:50;;;;;;;4.40;1.45;;;;;;;;;;5101515;28;20047;-61
2021/08/03 09:57:24;;;;;;;3.70;1.92;;;;;;;;;;5090052;28;20067;-61
2021/08/03 09:59:51;;;;;;;3.90;1.30;;;;;;;;;;5106922;28;20075;-61
2021/08/03 10:02:27;;;;;;;2.90;1.30;;;;;;;;;;5102436;28;20048;-62
2021/08/03 10:04:55;;;;;;;2.72;1.50;;;;;;;;;;5102423;28;20493;-61
2021/08/03 10:07:21;;;;;;;5.82;1.50;;;;;;;;;;5084607;28;20052;-61
2021/08/03 10:09:48;;;;;;;3.17;1.30;;;;;;;;;;5104475;28;20494;-61
2021/08/03 10:12:15;;;;;;;2.50;1.33;;;;;;;;;;5106435;28;20071;-61
2021/08/03 10:14:42;;;;;;;2.15;1.50;;;;;;;;;;5101646;28;20114;-61
2021/08/03 10:17:09;;;;;;;3.33;1.52;;;;;;;;;;5104734;28;20081;-61
2021/08/03 10:19:37;;;;;;;7.20;1.58;;;;;;;;;;5104373;28;20399;-61
2021/08/03 10:22:17;;;;;;;4.22;1.48;;;;;;;;;;5109269;28;20123;-61
2021/08/03 10:25:03;;;;;;;2.75;1.50;;;;;;;;;;5077539;28;20205;-61
2021/08/03 10:27:42;;;;;;;9.80;2.13;;;;;;;;;;5102718;28;20035;-61
2021/08/03 10:30:10;;;;;;;4.30;1.42;;;;;;;;;;5106070;28;20526;-61
2021/08/03 10:32:37;;;;;;;2.13;1.30;;;;;;;;;;5083439;28;20052;-61
2021/08/03 10:35:04;;;;;;;5.50;1.40;;;;;;;;;;5103356;28;20051;-61
2021/08/03 10:37:49;;;;;;;3.13;1.60;;;;;;;;;;5104036;28;20496;-61
2021/08/03 10:40:15;;;;;;;2.65;1.30;;;;;;;;;;5108132;28;20047;-61
2021/08/03 10:43:01;;;;;;;3.28;1.38;;;;;;;;;;5106757;28;20093;-61
2021/08/03 10:45:28;;;;;;;2.53;1.20;;;;;;;;;;5100690;28;20332;-61
2021/08/03 10:47:54;;;;;;;4.13;1.50;;;;;;;;;;5108442;28;20062;-61
2021/08/03 10:50:32;;;;;;;2.03;1.48;;;;;;;;;;5100916;28;20052;-61
2021/08/03 10:53:02;;;;;;;4.20;1.63;;;;;;;;;;5098653;28;20090;-61
2021/08/03 10:55:34;;;;;;;2.60;1.23;;;;;;;;;;5107924;28;20040;-61
2021/08/03 10:58:10;;;;;;;3.78;1.60;;;;;;;;;;5104199;28;20055;-62
2021/08/03 11:00:43;;;;;;;3.33;1.30;;;;;;;;;;5101857;28;20068;-62
2021/08/03 11:03:28;;;;;;;2.53;1.42;;;;;;;;;;5094785;28;20071;-62
2021/08/03 11:05:54;;;;;;;2.25;1.40;;;;;;;;;;5096793;28;20048;-62
2021/08/03 11:08:40;;;;;;;3.05;1.27;;;;;;;;;;5096567;28;20075;-62
2021/08/03 11:11:07;;;;;;;2.53;1.50;;;;;;;;;;5096440;28;20104;-62
2021/08/03 11:13:35;;;;;;;2.15;1.60;;;;;;;;;;5096551;28;20100;-62
2021/08/03 11:16:01;;;;;;;2.53;1.58;;;;;;;;;;5094669;28;20456;-61
2021/08/03 11:18:43;;;;;;;5.43;1.42;;;;;;;;;;5092811;28;20130;-61
2021/08/03 11:21:11;;;;;;;2.50;1.30;;;;;;;;;;5105905;28;20063;-61
2021/08/03 11:23:56;;;;;;;5.68;1.33;;;;;;;;;;5096231;28;20319;-61
2021/08/03 11:26:24;;;;;;;4.53;1.65;;;;;;;;;;5096182;28;20474;-62
2021/08/03 11:29:07;;;;;;;3.08;1.52;;;;;;;;;;5076685;28;20380;-62
2021/08/03 11:31:45;;;;;;;5.47;3.30;;;;;;;;;;5094922;28;20051;-62
2021/08/03 11:34:13;;;;;;;4.88;1.40;;;;;;;;;;5094660;28;20133;-62
2021/08/03 11:36:53;;;;;;;3.55;1.50;;;;;;;;;;5102105;28;20114;-62
2021/08/03 11:39:20;;;;;;;3.70;1.77;;;;;;;;;;5105275;28;20460;-61
2021/08/03 11:41:47;;;;;;;4.13;1.50;;;;;;;;;;5106203;28;20075;-61
2021/08/03 11:44:15;;;;;;;2.88;1.50;;;;;;;;;;5099112;28;20445;-61
2021/08/03 11:46:43;;;;;;;2.35;1.80;;;;;;;;;;5096801;28;20491;-62
2021/08/03 11:49:10;;;;;;;2.42;1.48;;;;;;;;;;5094805;28;20051;-62
2021/08/03 11:51:43;;;;;;;5.60;1.83;;;;;;;;;;5092030;28;20495;-62
2021/08/03 11:54:16;;;;;;;2.25;1.45;;;;;;;;;;5105002;28;20070;-62
2021/08/03 11:56:43;;;;;;;3.05;1.60;;;;;;;;;;5095111;28;20082;-62
2021/08/03 11:59:11;;;;;;;2.20;1.20;;;;;;;;;;5077325;28;20055;-62
2021/08/03 12:01:50;;;;;;;3.80;2.35;;;;;;;;;;5095637;28;20050;-62
2021/08/03 12:04:17;;;;;;;3.83;1.67;;;;;;;;;;5095534;28;20052;-62
2021/08/03 12:06:44;;;;;;;2.97;1.25;;;;;;;;;;5089535;28;20044;-62
2021/08/03 12:09:11;;;;;;;2.47;1.30;;;;;;;;;;5104405;28;20057;-62
2021/08/03 12:11:38;;;;;;;3.15;1.63;;;;;;;;;;5092880;28;20514;-62
2021/08/03 12:14:11;;;;;;;5.18;1.50;;;;;;;;;;5095283;28;20036;-63
2021/08/03 12:16:37;;;;;;;2.20;1.50;;;;;;;;;;5095546;28;20044;-63
2021/08/03 12:19:04;;;;;;;4.32;1.42;;;;;;;;;;5093068;28;20090;-64
2021/08/03 12:21:38;;;;;;;3.90;1.60;;;;;;;;;;5074494;28;20044;-63
2021/08/03 12:24:08;;;;;;;3.30;1.58;;;;;;;;;;5097203;28;20074;-63
2021/08/03 12:26:35;;;;;;;2.50;1.58;;;;;;;;;;5099220;28;20040;-61
2021/08/03 12:29:01;;;;;;;3.75;1.55;;;;;;;;;;5097866;28;20044;-63
2021/08/03 12:31:37;;;;;;;3.60;1.30;;;;;;;;;;5074460;28;20040;-63
2021/08/03 12:34:06;;;;;;;2.03;1.40;;;;;;;;;;5106679;28;20047;-62
2021/08/03 12:36:48;;;;;;;2.65;1.60;;;;;;;;;;5074039;28;20568;-62
2021/08/03 12:39:23;;;;;;;3.58;1.60;;;;;;;;;;5104846;28;20117;-62
2021/08/03 12:42:19;;;;;;;2.38;1.10;;;;;;;;;;5096640;28;20074;-62
2021/08/03 12:44:46;;;;;;;3.03;1.50;;;;;;;;;;5095969;28;20073;-62
2021/08/03 12:47:15;;;;;;;4.82;1.42;;;;;;;;;;5075773;28;20479;-62
2021/08/03 12:49:42;;;;;;;1.98;1.38;;;;;;;;;;5093084;28;20040;-62
2021/08/03 12:52:29;;;;;;;2.80;1.33;;;;;;;;;;5093847;28;20047;-62
2021/08/03 12:55:00;;;;;;;3.35;1.60;;;;;;;;;;5077863;28;20051;-62
2021/08/03 12:57:45;;;;;;;2.40;1.55;;;;;;;;;;5092963;28;20051;-63
2021/08/03 13:00:30;;;;;;;2.40;1.40;;;;;;;;;;5104488;28;20091;-62
2021/08/03 13:02:57;;;;;;;2.53;1.40;;;;;;;;;;5095136;28;20051;-63
2021/08/03 13:05:24;;;;;;;2.47;1.45;;;;;;;;;;5076678;28;20099;-62
2021/08/03 13:07:50;;;;;;;4.05;2.40;;;;;;;;;;5094591;28;20074;-62
2021/08/03 13:10:17;;;;;;;2.10;1.52;;;;;;;;;;5094707;28;20047;-63
2021/08/03 13:12:44;;;;;;;2.38;1.45;;;;;;;;;;5090534;28;20047;-62
2021/08/03 13:15:10;;;;;;;5.63;1.45;;;;;;;;;;5096271;28;20075;-62
2021/08/03 13:17:37;;;;;;;4.43;1.45;;;;;;;;;;5094996;28;20095;-62
2021/08/03 13:20:05;;;;;;;3.55;1.75;;;;;;;;;;5076476;28;20571;-62
2021/08/03 13:22:31;;;;;;;3.90;1.50;;;;;;;;;;5094453;28;20422;-62
2021/08/03 13:24:57;;;;;;;3.15;1.50;;;;;;;;;;5090647;28;20052;-62
2021/08/03 13:27:24;;;;;;;2.25;1.40;;;;;;;;;;5093383;28;20040;-63
2021/08/03 13:29:50;;;;;;;2.58;1.40;;;;;;;;;;5094146;28;20072;-62
2021/08/03 13:32:16;;;;;;;1.83;1.23;;;;;;;;;;5076328;28;20556;-62
2021/08/03 13:34:43;;;;;;;3.00;1.63;;;;;;;;;;5094416;28;20093;-62
2021/08/03 13:37:09;;;;;;;3.33;1.50;;;;;;;;;;5093704;28;20055;-62
2021/08/03 13:39:35;;;;;;;1.98;1.30;;;;;;;;;;5090738;28;20048;-63
2021/08/03 13:42:02;;;;;;;2.42;1.60;;;;;;;;;;5100104;28;20044;-63
2021/08/03 13:44:28;;;;;;;3.95;1.40;;;;;;;;;;5098092;28;20070;-62
2021/08/03 13:46:55;;;;;;;4.15;1.58;;;;;;;;;;5080403;28;20048;-63
2021/08/03 13:49:22;;;;;;;2.25;1.45;;;;;;;;;;5097629;28;20044;-63
2021/08/03 13:51:48;;;;;;;2.13;1.42;;;;;;;;;;5075935;28;20074;-62
2021/08/03 13:54:14;;;;;;;4.65;1.45;;;;;;;;;;5080870;28;20508;-63
2021/08/03 13:56:40;;;;;;;1.98;1.30;;;;;;;;;;5114441;27;20051;-63
2021/08/03 13:59:07;;;;;;;2.42;1.23;;;;;;;;;;5097923;28;20075;-62
2021/08/03 14:01:33;;;;;;;5.53;1.23;;;;;;;;;;5097945;28;20047;-62
2021/08/03 14:03:59;;;;;;;3.60;1.50;;;;;;;;;;5093736;28;20513;-63
2021/08/03 14:06:26;;;;;;;2.40;1.50;;;;;;;;;;5096357;28;20537;-62
2021/08/03 14:08:52;;;;;;;3.25;1.40;;;;;;;;;;5097374;28;20411;-63
2021/08/03 14:11:19;;;;;;;3.55;1.50;;;;;;;;;;5097470;28;20040;-62
2021/08/03 14:13:45;;;;;;;2.70;1.50;;;;;;;;;;5097367;28;20078;-62
2021/08/03 14:16:11;;;;;;;2.35;1.60;;;;;;;;;;5096592;28;20048;-62
2021/08/03 14:18:38;;;;;;;1.88;1.30;;;;;;;;;;5092381;28;20058;-62
2021/08/03 14:21:05;;;;;;;2.38;1.30;;;;;;;;;;5093795;28;20407;-62
2021/08/03 14:23:31;;;;;;;5.00;1.60;;;;;;;;;;5097836;28;20052;-62
2021/08/03 14:25:58;;;;;;;14.20;2.05;;;;;;;;;;5094781;28;20039;-59
2021/08/03 14:28:24;;;;;;;2.72;1.60;;;;;;;;;;5097344;28;20154;-61
2021/08/03 14:30:51;;;;;;;2.47;1.50;;;;;;;;;;5093755;28;20051;-61
2021/08/03 14:33:17;;;;;;;5.85;1.75;;;;;;;;;;5097268;28;20067;-60
2021/08/03 14:35:43;;;;;;;3.83;1.45;;;;;;;;;;5084856;28;20437;-60
2021/08/03 14:38:10;;;;;;;3.53;1.80;;;;;;;;;;5097322;28;20115;-59
2021/08/03 14:40:39;;;;;;;2.90;1.60;;;;;;;;;;5095372;28;20039;-60
2021/08/03 14:43:06;;;;;;;2.92;1.92;;;;;;;;;;5094347;28;20074;-61
2021/08/03 14:45:32;;;;;;;3.78;1.65;;;;;;;;;;5094170;28;20051;-61
2021/08/03 14:47:58;;;;;;;2.88;1.52;;;;;;;;;;5096154;28;20097;-61
2021/08/03 14:50:25;;;;;;;2.83;1.67;;;;;;;;;;5096313;28;20493;-61
2021/08/03 14:52:51;;;;;;;2.00;1.40;;;;;;;;;;5095986;28;20078;-61